AXM6115 WMKP-WMKK
Flight info
| Callsign | AXM6115 |
|---|---|
| Flight time | 0h 47m |
| Altitude | 25000 |
| Route | BOGUK DCT ANBIK Y507 KAKAK |
| Aircraft | A320/M-SDE3FGHIRWY/LB1 |
Departure
| Time | 2026-05-06 10:28 |
|---|---|
| Airport | Penang International Airport (WMKP) |
Arrival
| Time | 2026-05-06 11:15 |
|---|---|
| Airport | Kuala Lumpur International Airport (WMKK) |
| Time | Latitude | Longitude | Altitude | Speed | Heading |
|---|---|---|---|---|---|
| 2026-05-06 10:10 | 5.29382 | 100.26801 | 25 ft | 0 kts | 310° |
| 2026-05-06 10:20 | 5.29372 | 100.26812 | 25 ft | 2 kts | 309° |
| 2026-05-06 10:20 | 5.29363 | 100.26823 | 25 ft | 2 kts | 310° |
| 2026-05-06 10:21 | 5.29353 | 100.26835 | 25 ft | 2 kts | 310° |
| 2026-05-06 10:21 | 5.29343 | 100.26846 | 24 ft | 2 kts | 310° |
| 2026-05-06 10:21 | 5.29337 | 100.26854 | 24 ft | 2 kts | 306° |
| 2026-05-06 10:21 | 5.29332 | 100.26868 | 24 ft | 2 kts | 273° |
| 2026-05-06 10:22 | 5.29334 | 100.26884 | 24 ft | 2 kts | 246° |
| 2026-05-06 10:22 | 5.29340 | 100.26894 | 23 ft | 0 kts | 225° |
| 2026-05-06 10:22 | 5.29345 | 100.26899 | 23 ft | 1 kts | 221° |
| 2026-05-06 10:22 | 5.29346 | 100.26899 | 23 ft | 0 kts | 221° |
| 2026-05-06 10:25 | 5.29344 | 100.26897 | 23 ft | 0 kts | 222° |
| 2026-05-06 10:25 | 5.29334 | 100.26888 | 23 ft | 3 kts | 222° |
| 2026-05-06 10:25 | 5.29312 | 100.26868 | 24 ft | 4 kts | 223° |
| 2026-05-06 10:25 | 5.29280 | 100.26842 | 24 ft | 6 kts | 203° |
| 2026-05-06 10:26 | 5.29228 | 100.26862 | 24 ft | 9 kts | 133° |
| 2026-05-06 10:26 | 5.29168 | 100.26927 | 23 ft | 13 kts | 131° |
| 2026-05-06 10:26 | 5.29099 | 100.27005 | 21 ft | 12 kts | 131° |
| 2026-05-06 10:26 | 5.29052 | 100.27062 | 21 ft | 8 kts | 110° |
| 2026-05-06 10:27 | 5.29085 | 100.27113 | 21 ft | 6 kts | 43° |
| 2026-05-06 10:27 | 5.29087 | 100.27116 | 21 ft | 0 kts | 43° |
| 2026-05-06 10:27 | 5.29089 | 100.27118 | 21 ft | 3 kts | 43° |
| 2026-05-06 10:27 | 5.29259 | 100.27271 | 22 ft | 72 kts | 43° |
| 2026-05-06 10:28 | 5.29862 | 100.27814 | 23 ft | 147 kts | 41° |
| 2026-05-06 10:28 | 5.30756 | 100.28645 | 295 ft | 181 kts | 44° |
| 2026-05-06 10:28 | 5.31820 | 100.29627 | 758 ft | 212 kts | 41° |
| 2026-05-06 10:28 | 5.33100 | 100.30692 | 1040 ft | 244 kts | 42° |
| 2026-05-06 10:29 | 5.34089 | 100.31993 | 1112 ft | 227 kts | 73° |
| 2026-05-06 10:29 | 5.34082 | 100.33570 | 1007 ft | 231 kts | 109° |
| 2026-05-06 10:29 | 5.33486 | 100.35139 | 1270 ft | 248 kts | 110° |
| 2026-05-06 10:29 | 5.32913 | 100.36820 | 1862 ft | 260 kts | 107° |
| 2026-05-06 10:30 | 5.32405 | 100.38643 | 2683 ft | 263 kts | 104° |
| 2026-05-06 10:30 | 5.31935 | 100.40517 | 3537 ft | 266 kts | 106° |
| 2026-05-06 10:30 | 5.30968 | 100.42155 | 4307 ft | 272 kts | 138° |
| 2026-05-06 10:30 | 5.29287 | 100.43195 | 5162 ft | 274 kts | 152° |
| 2026-05-06 10:31 | 5.27469 | 100.44061 | 5956 ft | 278 kts | 152° |
| 2026-05-06 10:31 | 5.25588 | 100.44971 | 6758 ft | 281 kts | 151° |
| 2026-05-06 10:31 | 5.23734 | 100.45918 | 7524 ft | 284 kts | 150° |
| 2026-05-06 10:31 | 5.21875 | 100.46908 | 8261 ft | 288 kts | 149° |
| 2026-05-06 10:32 | 5.20056 | 100.47897 | 8957 ft | 291 kts | 149° |
| 2026-05-06 10:32 | 5.18173 | 100.48935 | 9660 ft | 294 kts | 148° |
| 2026-05-06 10:32 | 5.16308 | 100.49970 | 10317 ft | 297 kts | 148° |
| 2026-05-06 10:32 | 5.14384 | 100.51045 | 10703 ft | 311 kts | 148° |
| 2026-05-06 10:33 | 5.12402 | 100.52157 | 10978 ft | 327 kts | 148° |
| 2026-05-06 10:33 | 5.10207 | 100.53387 | 11261 ft | 343 kts | 148° |
| 2026-05-06 10:33 | 5.07946 | 100.54656 | 11529 ft | 358 kts | 148° |
| 2026-05-06 10:33 | 5.05600 | 100.55970 | 11978 ft | 365 kts | 148° |
| 2026-05-06 10:34 | 5.03220 | 100.57301 | 12557 ft | 367 kts | 148° |
| 2026-05-06 10:34 | 5.00854 | 100.58626 | 13123 ft | 370 kts | 148° |
| 2026-05-06 10:34 | 4.98450 | 100.59972 | 13661 ft | 372 kts | 148° |
| 2026-05-06 10:34 | 4.96117 | 100.61282 | 14151 ft | 375 kts | 148° |
| 2026-05-06 10:35 | 4.93801 | 100.62578 | 14627 ft | 377 kts | 148° |
| 2026-05-06 10:35 | 4.91388 | 100.63930 | 15111 ft | 379 kts | 148° |
| 2026-05-06 10:35 | 4.88966 | 100.65288 | 15565 ft | 382 kts | 148° |
| 2026-05-06 10:35 | 4.86559 | 100.66637 | 16011 ft | 384 kts | 148° |
| 2026-05-06 10:36 | 4.84073 | 100.68030 | 16475 ft | 386 kts | 148° |
| 2026-05-06 10:36 | 4.81586 | 100.69423 | 16886 ft | 389 kts | 148° |
| 2026-05-06 10:36 | 4.79068 | 100.70834 | 17304 ft | 391 kts | 148° |
| 2026-05-06 10:36 | 4.76553 | 100.72244 | 17714 ft | 393 kts | 148° |
| 2026-05-06 10:37 | 4.74020 | 100.73662 | 18106 ft | 395 kts | 148° |
| 2026-05-06 10:37 | 4.71439 | 100.75108 | 18492 ft | 397 kts | 149° |
| 2026-05-06 10:37 | 4.68898 | 100.76531 | 18845 ft | 400 kts | 148° |
| 2026-05-06 10:37 | 4.66312 | 100.77979 | 19207 ft | 402 kts | 148° |
| 2026-05-06 10:38 | 4.63756 | 100.79411 | 19541 ft | 405 kts | 149° |
| 2026-05-06 10:38 | 4.61122 | 100.80886 | 19885 ft | 407 kts | 149° |
| 2026-05-06 10:38 | 4.58505 | 100.82352 | 20212 ft | 410 kts | 149° |
| 2026-05-06 10:38 | 4.55863 | 100.83830 | 20539 ft | 412 kts | 149° |
| 2026-05-06 10:39 | 4.53163 | 100.85341 | 20873 ft | 414 kts | 149° |
| 2026-05-06 10:39 | 4.50504 | 100.86829 | 21195 ft | 416 kts | 149° |
| 2026-05-06 10:39 | 4.47816 | 100.88335 | 21498 ft | 418 kts | 149° |
| 2026-05-06 10:39 | 4.45111 | 100.89786 | 21794 ft | 421 kts | 152° |
| 2026-05-06 10:40 | 4.42321 | 100.91158 | 22090 ft | 423 kts | 152° |
| 2026-05-06 10:40 | 4.39521 | 100.92522 | 22375 ft | 425 kts | 152° |
| 2026-05-06 10:40 | 4.36705 | 100.93890 | 22639 ft | 428 kts | 152° |
| 2026-05-06 10:40 | 4.33836 | 100.95283 | 22940 ft | 429 kts | 152° |
| 2026-05-06 10:41 | 4.31001 | 100.96662 | 23232 ft | 430 kts | 152° |
| 2026-05-06 10:41 | 4.28132 | 100.98061 | 23509 ft | 432 kts | 153° |
| 2026-05-06 10:41 | 4.25227 | 100.99474 | 23784 ft | 434 kts | 153° |
| 2026-05-06 10:41 | 4.22324 | 101.00889 | 24048 ft | 435 kts | 153° |
| 2026-05-06 10:42 | 4.19463 | 101.02280 | 24296 ft | 437 kts | 152° |
| 2026-05-06 10:42 | 4.16624 | 101.03661 | 24546 ft | 439 kts | 152° |
| 2026-05-06 10:42 | 4.13720 | 101.05076 | 24769 ft | 441 kts | 152° |
| 2026-05-06 10:42 | 4.10820 | 101.06488 | 24796 ft | 441 kts | 153° |
| 2026-05-06 10:43 | 4.07912 | 101.07904 | 24799 ft | 441 kts | 153° |
| 2026-05-06 10:43 | 4.04999 | 101.09321 | 24801 ft | 441 kts | 153° |
| 2026-05-06 10:43 | 4.02140 | 101.10713 | 24801 ft | 441 kts | 153° |
| 2026-05-06 10:44 | 3.96348 | 101.13532 | 24794 ft | 441 kts | 153° |
| 2026-05-06 10:44 | 3.93419 | 101.14957 | 24791 ft | 441 kts | 153° |
| 2026-05-06 10:44 | 3.90523 | 101.16366 | 24787 ft | 441 kts | 152° |
| 2026-05-06 10:44 | 3.87662 | 101.17758 | 24786 ft | 440 kts | 153° |
| 2026-05-06 10:45 | 3.84788 | 101.19156 | 24785 ft | 441 kts | 152° |
| 2026-05-06 10:45 | 3.81846 | 101.20586 | 24784 ft | 441 kts | 152° |
| 2026-05-06 10:45 | 3.79031 | 101.22111 | 24786 ft | 440 kts | 146° |
| 2026-05-06 10:45 | 3.76381 | 101.23964 | 24787 ft | 438 kts | 140° |
| 2026-05-06 10:46 | 3.74004 | 101.26073 | 24787 ft | 437 kts | 134° |
| 2026-05-06 10:46 | 3.71789 | 101.28378 | 24790 ft | 437 kts | 132° |
| 2026-05-06 10:46 | 3.69599 | 101.30727 | 24791 ft | 437 kts | 131° |
| 2026-05-06 10:46 | 3.67382 | 101.33114 | 24789 ft | 437 kts | 131° |
| 2026-05-06 10:47 | 3.65185 | 101.35472 | 24791 ft | 437 kts | 131° |
| 2026-05-06 10:47 | 3.63001 | 101.37811 | 24790 ft | 437 kts | 131° |
| 2026-05-06 10:47 | 3.60795 | 101.40166 | 24793 ft | 436 kts | 131° |
| 2026-05-06 10:47 | 3.58568 | 101.42542 | 24798 ft | 436 kts | 132° |
| 2026-05-06 10:48 | 3.56388 | 101.44867 | 24803 ft | 436 kts | 131° |
| 2026-05-06 10:48 | 3.54237 | 101.47161 | 24810 ft | 437 kts | 132° |
| 2026-05-06 10:48 | 3.52124 | 101.49414 | 24813 ft | 437 kts | 131° |
| 2026-05-06 10:48 | 3.49928 | 101.51753 | 24814 ft | 436 kts | 132° |
| 2026-05-06 10:49 | 3.47719 | 101.54107 | 24821 ft | 436 kts | 131° |
| 2026-05-06 10:49 | 3.45540 | 101.56430 | 24830 ft | 437 kts | 131° |
| 2026-05-06 10:49 | 3.43338 | 101.58777 | 24836 ft | 437 kts | 131° |
| 2026-05-06 10:49 | 3.41157 | 101.61100 | 24842 ft | 436 kts | 131° |
| 2026-05-06 10:50 | 3.38971 | 101.63429 | 24845 ft | 436 kts | 131° |
| 2026-05-06 10:50 | 3.36809 | 101.65732 | 24846 ft | 436 kts | 131° |
| 2026-05-06 10:50 | 3.34733 | 101.67944 | 24849 ft | 436 kts | 131° |
| 2026-05-06 10:50 | 3.32541 | 101.70280 | 24849 ft | 436 kts | 131° |
| 2026-05-06 10:51 | 3.30358 | 101.72604 | 24844 ft | 436 kts | 131° |
| 2026-05-06 10:51 | 3.28144 | 101.74965 | 24840 ft | 436 kts | 131° |
| 2026-05-06 10:51 | 3.26064 | 101.77327 | 24835 ft | 435 kts | 128° |
| 2026-05-06 10:51 | 3.23999 | 101.79833 | 24835 ft | 435 kts | 128° |
| 2026-05-06 10:52 | 3.22194 | 101.82041 | 24698 ft | 430 kts | 128° |
| 2026-05-06 10:52 | 3.20303 | 101.84358 | 24147 ft | 426 kts | 128° |
| 2026-05-06 10:52 | 3.18376 | 101.86716 | 23686 ft | 418 kts | 128° |
| 2026-05-06 10:52 | 3.16497 | 101.89012 | 23469 ft | 404 kts | 128° |
| 2026-05-06 10:53 | 3.14753 | 101.91260 | 23247 ft | 390 kts | 122° |
| 2026-05-06 10:53 | 3.13472 | 101.93533 | 23048 ft | 377 kts | 113° |
| 2026-05-06 10:53 | 3.12591 | 101.95785 | 22870 ft | 365 kts | 108° |
| 2026-05-06 10:53 | 3.11706 | 101.98189 | 22674 ft | 355 kts | 112° |
| 2026-05-06 10:54 | 3.10603 | 102.00440 | 22483 ft | 345 kts | 118° |
| 2026-05-06 10:54 | 3.09317 | 102.02512 | 22293 ft | 335 kts | 121° |
| 2026-05-06 10:54 | 3.07973 | 102.04421 | 22114 ft | 326 kts | 126° |
| 2026-05-06 10:54 | 3.06463 | 102.06153 | 21942 ft | 318 kts | 132° |
| 2026-05-06 10:55 | 3.04854 | 102.07670 | 21773 ft | 309 kts | 136° |
| 2026-05-06 10:55 | 3.03208 | 102.09090 | 21559 ft | 303 kts | 139° |
| 2026-05-06 10:55 | 3.01485 | 102.10342 | 21251 ft | 301 kts | 144° |
| 2026-05-06 10:55 | 2.99665 | 102.11410 | 20920 ft | 300 kts | 150° |
| 2026-05-06 10:56 | 2.97724 | 102.12380 | 20578 ft | 298 kts | 150° |
| 2026-05-06 10:56 | 2.95792 | 102.13231 | 20242 ft | 297 kts | 156° |
| 2026-05-06 10:56 | 2.93781 | 102.13889 | 19924 ft | 296 kts | 162° |
| 2026-05-06 10:56 | 2.91748 | 102.14350 | 19602 ft | 295 kts | 166° |
| 2026-05-06 10:57 | 2.89682 | 102.14745 | 19266 ft | 294 kts | 168° |
| 2026-05-06 10:57 | 2.87634 | 102.14970 | 18939 ft | 294 kts | 175° |
| 2026-05-06 10:57 | 2.85557 | 102.14709 | 18587 ft | 298 kts | 194° |
| 2026-05-06 10:57 | 2.83689 | 102.13864 | 18259 ft | 300 kts | 214° |
| 2026-05-06 10:58 | 2.82223 | 102.12350 | 17903 ft | 302 kts | 239° |
| 2026-05-06 10:58 | 2.81486 | 102.10389 | 17563 ft | 302 kts | 263° |
| 2026-05-06 10:58 | 2.81552 | 102.08306 | 17223 ft | 299 kts | 281° |
| 2026-05-06 10:58 | 2.81975 | 102.06259 | 16904 ft | 298 kts | 284° |
| 2026-05-06 10:59 | 2.82424 | 102.04245 | 16581 ft | 297 kts | 283° |
| 2026-05-06 10:59 | 2.82858 | 102.02233 | 16283 ft | 295 kts | 283° |
| 2026-05-06 10:59 | 2.83267 | 102.00249 | 15992 ft | 294 kts | 282° |
| 2026-05-06 10:59 | 2.83670 | 101.98237 | 15697 ft | 292 kts | 282° |
| 2026-05-06 11:00 | 2.84068 | 101.96224 | 15407 ft | 290 kts | 282° |
| 2026-05-06 11:00 | 2.84457 | 101.94241 | 15116 ft | 288 kts | 282° |
| 2026-05-06 11:00 | 2.84849 | 101.92239 | 14825 ft | 287 kts | 282° |
| 2026-05-06 11:00 | 2.85230 | 101.90295 | 14539 ft | 285 kts | 282° |
| 2026-05-06 11:01 | 2.85597 | 101.88362 | 14238 ft | 284 kts | 278° |
| 2026-05-06 11:01 | 2.85488 | 101.86430 | 13905 ft | 284 kts | 251° |
| 2026-05-06 11:01 | 2.84580 | 101.84695 | 13611 ft | 280 kts | 234° |
| 2026-05-06 11:01 | 2.83440 | 101.83093 | 13309 ft | 280 kts | 233° |
| 2026-05-06 11:02 | 2.82279 | 101.81490 | 13006 ft | 278 kts | 230° |
| 2026-05-06 11:02 | 2.80794 | 101.80216 | 12643 ft | 273 kts | 200° |
| 2026-05-06 11:02 | 2.78912 | 101.79906 | 12326 ft | 265 kts | 169° |
| 2026-05-06 11:02 | 2.77171 | 101.80527 | 12001 ft | 257 kts | 144° |
| 2026-05-06 11:03 | 2.75699 | 101.81548 | 11706 ft | 255 kts | 142° |
| 2026-05-06 11:03 | 2.74218 | 101.82594 | 11392 ft | 255 kts | 142° |
| 2026-05-06 11:03 | 2.72764 | 101.83604 | 11084 ft | 254 kts | 143° |
| 2026-05-06 11:03 | 2.71299 | 101.84603 | 10777 ft | 254 kts | 143° |
| 2026-05-06 11:04 | 2.69822 | 101.85603 | 10469 ft | 253 kts | 143° |
| 2026-05-06 11:04 | 2.68340 | 101.86601 | 10164 ft | 252 kts | 144° |
| 2026-05-06 11:04 | 2.66879 | 101.87581 | 9866 ft | 251 kts | 144° |
| 2026-05-06 11:04 | 2.65398 | 101.88575 | 9566 ft | 250 kts | 144° |
| 2026-05-06 11:05 | 2.63888 | 101.89587 | 9258 ft | 248 kts | 144° |
| 2026-05-06 11:05 | 2.62385 | 101.90595 | 8960 ft | 247 kts | 144° |
| 2026-05-06 11:05 | 2.60973 | 101.91540 | 8802 ft | 239 kts | 144° |
| 2026-05-06 11:05 | 2.59604 | 101.92457 | 8651 ft | 231 kts | 144° |
| 2026-05-06 11:06 | 2.58283 | 101.93341 | 8474 ft | 226 kts | 144° |
| 2026-05-06 11:06 | 2.56971 | 101.94220 | 8213 ft | 224 kts | 144° |
| 2026-05-06 11:06 | 2.55665 | 101.95097 | 7926 ft | 223 kts | 144° |
| 2026-05-06 11:06 | 2.54312 | 101.95892 | 7627 ft | 225 kts | 162° |
| 2026-05-06 11:07 | 2.52736 | 101.95906 | 7287 ft | 227 kts | 200° |
| 2026-05-06 11:07 | 2.51416 | 101.94970 | 6993 ft | 227 kts | 233° |
| 2026-05-06 11:07 | 2.50504 | 101.93604 | 6720 ft | 225 kts | 238° |
| 2026-05-06 11:07 | 2.49618 | 101.92210 | 6428 ft | 224 kts | 237° |
| 2026-05-06 11:08 | 2.48725 | 101.90842 | 6150 ft | 223 kts | 237° |
| 2026-05-06 11:08 | 2.47829 | 101.89499 | 5875 ft | 222 kts | 236° |
| 2026-05-06 11:08 | 2.46980 | 101.88161 | 5608 ft | 221 kts | 249° |
| 2026-05-06 11:08 | 2.46812 | 101.86606 | 5309 ft | 217 kts | 286° |
| 2026-05-06 11:09 | 2.47540 | 101.85339 | 5154 ft | 204 kts | 316° |
| 2026-05-06 11:09 | 2.48673 | 101.84465 | 4922 ft | 196 kts | 327° |
| 2026-05-06 11:09 | 2.49849 | 101.83720 | 4699 ft | 185 kts | 329° |
| 2026-05-06 11:09 | 2.50922 | 101.83049 | 4463 ft | 172 kts | 329° |
| 2026-05-06 11:10 | 2.51931 | 101.82405 | 4234 ft | 160 kts | 329° |
| 2026-05-06 11:10 | 2.52872 | 101.81793 | 4034 ft | 157 kts | 328° |
| 2026-05-06 11:10 | 2.53823 | 101.81166 | 3838 ft | 157 kts | 328° |
| 2026-05-06 11:10 | 2.54750 | 101.80548 | 3645 ft | 156 kts | 327° |
| 2026-05-06 11:11 | 2.55664 | 101.79935 | 3450 ft | 156 kts | 327° |
| 2026-05-06 11:11 | 2.56596 | 101.79307 | 3249 ft | 155 kts | 327° |
| 2026-05-06 11:11 | 2.57510 | 101.78689 | 3045 ft | 154 kts | 327° |
| 2026-05-06 11:11 | 2.58442 | 101.78059 | 2833 ft | 153 kts | 328° |
| 2026-05-06 11:12 | 2.59370 | 101.77433 | 2622 ft | 152 kts | 327° |
| 2026-05-06 11:12 | 2.60272 | 101.76825 | 2417 ft | 152 kts | 327° |
| 2026-05-06 11:12 | 2.61151 | 101.76233 | 2220 ft | 152 kts | 328° |
| 2026-05-06 11:12 | 2.62066 | 101.75617 | 2018 ft | 151 kts | 328° |
| 2026-05-06 11:13 | 2.62995 | 101.74993 | 1817 ft | 151 kts | 328° |
| 2026-05-06 11:13 | 2.63893 | 101.74390 | 1621 ft | 150 kts | 328° |
| 2026-05-06 11:13 | 2.64803 | 101.73780 | 1425 ft | 150 kts | 327° |
| 2026-05-06 11:13 | 2.65714 | 101.73168 | 1229 ft | 149 kts | 327° |
| 2026-05-06 11:14 | 2.66622 | 101.72560 | 1032 ft | 149 kts | 327° |
| 2026-05-06 11:14 | 2.67521 | 101.71957 | 835 ft | 149 kts | 327° |
| 2026-05-06 11:14 | 2.68413 | 101.71359 | 640 ft | 148 kts | 327° |
| 2026-05-06 11:14 | 2.69317 | 101.70753 | 440 ft | 148 kts | 326° |
| 2026-05-06 11:15 | 2.70220 | 101.70156 | 248 ft | 147 kts | 327° |
| 2026-05-06 11:15 | 2.71104 | 101.69577 | 93 ft | 139 kts | 327° |
| 2026-05-06 11:15 | 2.71856 | 101.69075 | 74 ft | 99 kts | 322° |
| 2026-05-06 11:15 | 2.72275 | 101.68774 | 74 ft | 49 kts | 326° |
| 2026-05-06 11:16 | 2.72511 | 101.68649 | 74 ft | 34 kts | 345° |
| 2026-05-06 11:16 | 2.72701 | 101.68619 | 74 ft | 12 kts | 352° |
| 2026-05-06 11:16 | 2.72767 | 101.68610 | 74 ft | 9 kts | 352° |
| 2026-05-06 11:16 | 2.72843 | 101.68600 | 74 ft | 10 kts | 347° |
| 2026-05-06 11:17 | 2.72916 | 101.68559 | 74 ft | 12 kts | 327° |
| 2026-05-06 11:17 | 2.72991 | 101.68511 | 74 ft | 12 kts | 324° |
| 2026-05-06 11:17 | 2.73070 | 101.68456 | 74 ft | 13 kts | 328° |
| 2026-05-06 11:17 | 2.73154 | 101.68401 | 74 ft | 14 kts | 326° |
| 2026-05-06 11:18 | 2.73243 | 101.68340 | 74 ft | 14 kts | 326° |
| 2026-05-06 11:18 | 2.73335 | 101.68278 | 74 ft | 15 kts | 326° |
| 2026-05-06 11:18 | 2.73432 | 101.68214 | 74 ft | 16 kts | 326° |
| 2026-05-06 11:18 | 2.73530 | 101.68148 | 74 ft | 16 kts | 326° |
| 2026-05-06 11:19 | 2.73615 | 101.68091 | 74 ft | 12 kts | 334° |
| 2026-05-06 11:19 | 2.73687 | 101.68129 | 74 ft | 13 kts | 55° |
| 2026-05-06 11:19 | 2.73741 | 101.68208 | 74 ft | 14 kts | 56° |
| 2026-05-06 11:19 | 2.73799 | 101.68292 | 74 ft | 14 kts | 55° |
| 2026-05-06 11:20 | 2.73857 | 101.68379 | 74 ft | 14 kts | 56° |
| 2026-05-06 11:20 | 2.73912 | 101.68459 | 74 ft | 13 kts | 56° |
| 2026-05-06 11:20 | 2.73965 | 101.68538 | 74 ft | 13 kts | 56° |
| 2026-05-06 11:20 | 2.74016 | 101.68613 | 74 ft | 12 kts | 56° |
| 2026-05-06 11:21 | 2.74065 | 101.68686 | 75 ft | 12 kts | 56° |
| 2026-05-06 11:21 | 2.74113 | 101.68756 | 75 ft | 12 kts | 56° |
| 2026-05-06 11:21 | 2.74160 | 101.68825 | 75 ft | 11 kts | 57° |
| 2026-05-06 11:21 | 2.74198 | 101.68882 | 75 ft | 7 kts | 56° |
| 2026-05-06 11:22 | 2.74239 | 101.68881 | 75 ft | 6 kts | 332° |
| 2026-05-06 11:22 | 2.74271 | 101.68861 | 75 ft | 4 kts | 325° |
| 2026-05-06 11:22 | 2.74288 | 101.68849 | 75 ft | 0 kts | 326° |